Time;durP1;ratioP1;P1;durP2;ratioP2;P2;SDS_P1;SDS_P2;PMS_P1;PMS_P2;Temp;Humidity;BMP_temperature;BMP_pressure;BME280_temperature;BME280_humidity;BME280_pressure;Samples;Min_cycle;Max_cycle;Signal;HPM_P1;HPM_P2
2022/05/01 00:00:05;;;;;;;20.02;10.05;;;7.20;99.90;;;;;;5055490;28;20040;-87
2022/05/01 00:02:31;;;;;;;16.38;9.60;;;7.20;99.90;;;;;;5059279;28;20091;-86
2022/05/01 00:04:56;;;;;;;18.02;9.80;;;7.20;99.90;;;;;;5059072;28;20098;-86
2022/05/01 00:07:22;;;;;;;18.02;9.90;;;7.20;99.90;;;;;;5073646;28;20128;-86
2022/05/01 00:09:48;;;;;;;18.08;9.70;;;7.10;99.90;;;;;;5055441;28;20565;-86
2022/05/01 00:12:13;;;;;;;17.20;10.15;;;7.10;99.90;;;;;;5058862;28;20048;-86
2022/05/01 00:14:39;;;;;;;17.50;10.30;;;7.10;99.90;;;;;;5073765;28;20133;-86
2022/05/01 00:17:05;;;;;;;18.17;9.98;;;7.10;99.90;;;;;;5057393;28;20063;-86
2022/05/01 00:19:30;;;;;;;21.17;10.88;;;7.10;99.90;;;;;;5074891;28;20097;-86
2022/05/01 00:21:58;;;;;;;19.60;10.27;;;7.10;99.90;;;;;;5073727;28;20492;-86
2022/05/01 00:24:24;;;;;;;17.50;9.52;;;7.10;99.90;;;;;;5056882;28;20484;-87
2022/05/01 00:26:50;;;;;;;19.63;9.93;;;7.10;99.90;;;;;;5073742;28;20072;-87
2022/05/01 00:29:16;;;;;;;17.08;9.55;;;7.10;99.90;;;;;;5073693;28;20481;-86
2022/05/01 00:31:41;;;;;;;16.95;9.70;;;7.10;99.90;;;;;;5074140;28;20063;-87
2022/05/01 00:36:51;;;;;;;17.25;9.88;;;7.10;99.90;;;;;;5072935;28;20492;-87
2022/05/01 00:39:16;;;;;;;17.63;9.93;;;7.00;99.90;;;;;;5073749;28;20056;-86
2022/05/01 00:41:46;;;;;;;20.42;10.80;;;7.10;99.90;;;;;;5073016;28;20040;-87
2022/05/01 00:44:16;;;;;;;17.13;9.68;;;7.00;99.90;;;;;;5073339;28;20041;-86
2022/05/01 00:46:46;;;;;;;20.52;10.07;;;7.10;99.90;;;;;;5073393;28;20048;-86
2022/05/01 00:49:14;;;;;;;17.33;9.82;;;7.10;99.90;;;;;;5072783;28;20047;-86
2022/05/01 00:51:54;;;;;;;18.00;9.75;;;7.00;99.90;;;;;;5055057;28;20075;-86
2022/05/01 00:54:24;;;;;;;17.42;9.88;;;7.00;99.90;;;;;;5074298;28;20227;-87
2022/05/01 00:56:52;;;;;;;18.98;10.73;;;7.00;99.90;;;;;;5072373;28;20522;-86
2022/05/01 00:59:18;;;;;;;19.05;10.20;;;7.00;99.90;;;;;;5071939;28;20047;-86
2022/05/01 01:01:45;;;;;;;20.25;10.40;;;7.00;99.90;;;;;;5054722;28;20041;-86
2022/05/01 01:04:11;;;;;;;17.80;10.43;;;7.10;99.90;;;;;;5071833;28;20392;-86
2022/05/01 01:06:44;;;;;;;18.60;10.13;;;7.00;99.90;;;;;;5055568;28;20048;-86
2022/05/01 01:09:10;;;;;;;19.67;10.32;;;7.00;99.90;;;;;;5073343;28;20040;-86
2022/05/01 01:11:40;;;;;;;18.85;10.98;;;6.90;99.90;;;;;;5072797;28;20028;-87
2022/05/01 01:14:06;;;;;;;18.08;10.18;;;6.90;99.90;;;;;;5055716;28;20056;-87
2022/05/01 01:16:34;;;;;;;17.50;10.55;;;6.90;99.90;;;;;;5055256;28;20036;-86
2022/05/01 01:19:00;;;;;;;17.92;10.60;;;6.90;99.90;;;;;;5054544;28;20242;-86
2022/05/01 01:21:26;;;;;;;17.00;10.02;;;6.90;99.90;;;;;;5073092;28;20095;-86
2022/05/01 01:23:52;;;;;;;19.30;10.50;;;6.90;99.90;;;;;;5054487;28;20053;-86
2022/05/01 01:26:18;;;;;;;19.55;10.85;;;6.90;99.90;;;;;;5053910;28;20394;-86
2022/05/01 01:28:46;;;;;;;19.17;11.00;;;6.90;99.90;;;;;;5072865;28;20049;-86
2022/05/01 01:34:03;;;;;;;19.98;11.35;;;6.90;99.90;;;;;;5054866;28;20139;-86
2022/05/01 01:36:32;;;;;;;19.85;10.85;;;6.90;99.90;;;;;;5047423;28;20048;-86
2022/05/01 01:38:58;;;;;;;19.23;10.95;;;6.80;99.90;;;;;;5053621;28;20041;-86
2022/05/01 01:41:30;;;;;;;20.98;11.35;;;6.90;99.90;;;;;;5054523;28;20048;-86
2022/05/01 01:43:56;;;;;;;19.88;10.48;;;6.80;99.90;;;;;;5072536;28;20040;-86
2022/05/01 01:46:22;;;;;;;19.95;11.45;;;6.90;99.90;;;;;;5054064;28;20506;-86
2022/05/01 01:48:48;;;;;;;19.98;11.07;;;6.80;99.90;;;;;;5054306;28;20072;-86
2022/05/01 01:51:14;;;;;;;19.20;10.43;;;6.80;99.90;;;;;;5072600;28;20044;-87
2022/05/01 01:53:41;;;;;;;20.83;11.43;;;6.80;99.90;;;;;;5074244;28;20045;-86
2022/05/01 01:56:09;;;;;;;17.60;10.75;;;6.80;99.90;;;;;;5072335;28;20052;-86
2022/05/01 01:58:37;;;;;;;20.15;11.13;;;6.80;99.90;;;;;;5072979;28;20467;-86
2022/05/01 02:01:04;;;;;;;21.58;11.23;;;6.80;99.90;;;;;;5072122;28;20407;-86
2022/05/01 02:03:30;;;;;;;18.83;10.95;;;6.80;99.90;;;;;;5056192;28;20055;-86
2022/05/01 02:05:56;;;;;;;21.90;11.05;;;6.80;99.90;;;;;;5072091;28;20048;-86
2022/05/01 02:08:22;;;;;;;18.50;11.52;;;6.80;99.90;;;;;;5072352;28;20032;-86
2022/05/01 02:10:47;;;;;;;20.23;10.73;;;6.80;99.90;;;;;;5072413;28;20044;-87
2022/05/01 02:13:14;;;;;;;19.85;11.90;;;6.80;99.90;;;;;;5072652;28;20051;-87
2022/05/01 02:15:39;;;;;;;19.77;11.15;;;6.80;99.90;;;;;;5072954;28;20075;-87
2022/05/01 02:18:06;;;;;;;20.93;10.93;;;6.80;99.90;;;;;;5076280;28;20076;-86
2022/05/01 02:23:18;;;;;;;20.67;10.83;;;6.80;99.90;;;;;;5058149;28;20045;-86
2022/05/01 02:25:43;;;;;;;19.53;11.83;;;6.80;99.90;;;;;;5058372;28;20049;-86
2022/05/01 02:28:10;;;;;;;20.77;11.80;;;6.80;99.90;;;;;;5058657;28;20054;-86
2022/05/01 02:30:37;;;;;;;20.43;11.53;;;6.70;99.90;;;;;;5058308;28;20492;-86
2022/05/01 02:33:03;;;;;;;21.27;11.43;;;6.80;99.90;;;;;;5075728;28;20098;-86
2022/05/01 02:35:28;;;;;;;19.87;11.27;;;6.70;99.90;;;;;;5075150;28;20504;-87
2022/05/01 02:37:54;;;;;;;20.53;11.17;;;6.70;99.90;;;;;;5075526;28;20122;-87
2022/05/01 02:40:19;;;;;;;20.97;11.43;;;6.70;99.90;;;;;;5058419;28;20500;-86
2022/05/01 02:42:45;;;;;;;18.47;10.80;;;6.80;99.90;;;;;;5056614;28;20048;-87
2022/05/01 02:45:10;;;;;;;20.30;11.90;;;6.70;99.90;;;;;;5076254;28;20086;-86
2022/05/01 02:47:36;;;;;;;18.73;11.23;;;6.70;99.90;;;;;;5058142;28;20044;-86
2022/05/01 02:50:03;;;;;;;19.63;11.30;;;6.70;99.90;;;;;;5057175;28;20427;-87
2022/05/01 02:52:28;;;;;;;23.07;12.43;;;6.70;99.90;;;;;;5075567;28;20045;-87
2022/05/01 02:54:54;;;;;;;19.90;11.90;;;6.70;99.90;;;;;;5057054;28;20378;-86
2022/05/01 02:57:19;;;;;;;21.70;11.90;;;6.70;99.90;;;;;;5088536;28;20063;-86
2022/05/01 02:59:45;;;;;;;20.75;11.80;;;6.70;99.90;;;;;;5079618;28;20041;-86
2022/05/01 03:02:11;;;;;;;21.33;11.65;;;6.70;99.90;;;;;;5075968;28;20140;-87
2022/05/01 03:04:38;;;;;;;20.38;11.88;;;6.70;99.90;;;;;;5057393;28;20048;-86
2022/05/01 03:07:04;;;;;;;20.88;11.85;;;6.70;99.90;;;;;;5057658;28;20032;-87
2022/05/01 03:09:30;;;;;;;22.02;12.00;;;6.70;99.90;;;;;;5057980;28;20084;-86
2022/05/01 03:11:56;;;;;;;20.58;10.75;;;6.60;99.90;;;;;;5074291;28;20122;-86
2022/05/01 03:14:21;;;;;;;21.13;11.70;;;6.70;99.90;;;;;;5057392;28;20055;-87
2022/05/01 03:16:47;;;;;;;20.50;11.25;;;6.70;99.90;;;;;;5074957;28;20039;-86
2022/05/01 03:22:13;;;;;;;19.33;11.57;;;6.70;99.90;;;;;;5075470;28;20041;-86
2022/05/01 03:24:40;;;;;;;22.33;12.20;;;6.70;99.90;;;;;;5056703;28;20048;-86
2022/05/01 03:27:07;;;;;;;20.58;11.75;;;6.70;99.90;;;;;;5056491;28;20044;-87
2022/05/01 03:29:32;;;;;;;20.55;11.13;;;6.70;99.90;;;;;;5074750;28;20041;-87
2022/05/01 03:31:59;;;;;;;21.67;11.35;;;6.60;99.90;;;;;;5073289;28;20402;-87
2022/05/01 03:34:26;;;;;;;18.52;11.13;;;6.60;99.90;;;;;;5074776;28;20041;-87
2022/05/01 03:36:53;;;;;;;22.85;12.23;;;6.60;99.90;;;;;;5056512;28;20131;-87
2022/05/01 03:39:19;;;;;;;22.80;11.82;;;6.60;99.90;;;;;;5073751;28;20056;-86
2022/05/01 03:41:45;;;;;;;19.58;11.85;;;6.60;99.90;;;;;;5056404;28;20046;-87
2022/05/01 03:44:11;;;;;;;20.38;12.00;;;6.60;99.90;;;;;;5057950;28;20128;-87
2022/05/01 03:46:38;;;;;;;21.13;12.82;;;6.60;99.90;;;;;;5077737;28;20040;-87
2022/05/01 03:49:09;;;;;;;23.73;12.18;;;6.60;99.90;;;;;;5075054;28;20053;-87
2022/05/01 03:51:35;;;;;;;20.85;12.13;;;6.60;99.90;;;;;;5074586;28;20442;-87
2022/05/01 03:54:02;;;;;;;22.73;13.05;;;6.60;99.90;;;;;;5076830;28;20047;-86
2022/05/01 03:56:28;;;;;;;22.00;12.23;;;6.60;99.90;;;;;;5057932;28;20045;-86
2022/05/01 03:58:54;;;;;;;20.73;12.98;;;6.60;99.90;;;;;;5073747;28;20487;-86
2022/05/01 04:01:19;;;;;;;27.45;13.05;;;6.60;99.90;;;;;;5056006;28;20052;-86
2022/05/01 04:03:46;;;;;;;23.52;12.68;;;6.60;99.90;;;;;;5056585;28;20040;-86
2022/05/01 04:06:11;;;;;;;21.38;12.68;;;6.60;99.90;;;;;;5073458;28;20072;-87
2022/05/01 04:08:37;;;;;;;23.38;13.43;;;6.60;99.90;;;;;;5074190;28;20068;-86
2022/05/01 04:11:03;;;;;;;19.58;12.13;;;6.60;99.90;;;;;;5074223;28;20048;-86
2022/05/01 04:13:29;;;;;;;21.13;13.23;;;6.60;99.90;;;;;;5056013;28;20059;-86
2022/05/01 04:15:54;;;;;;;21.33;13.15;;;6.60;99.90;;;;;;5056261;28;20050;-86
2022/05/01 04:18:21;;;;;;;22.63;12.85;;;6.60;99.90;;;;;;5056669;28;20072;-86
2022/05/01 04:20:47;;;;;;;23.65;12.95;;;6.60;99.90;;;;;;5073630;28;20051;-86
2022/05/01 04:23:13;;;;;;;22.92;13.05;;;6.60;99.90;;;;;;5073935;28;20041;-86
2022/05/01 04:25:39;;;;;;;22.70;13.85;;;6.60;99.90;;;;;;5073962;28;20040;-86
2022/05/01 04:28:07;;;;;;;23.45;13.38;;;6.60;99.90;;;;;;5055373;28;20067;-87
2022/05/01 04:30:34;;;;;;;21.35;12.75;;;6.60;99.90;;;;;;5056140;28;20476;-86
2022/05/01 04:33:00;;;;;;;22.80;13.40;;;6.60;99.90;;;;;;5055507;28;20557;-86
2022/05/01 04:35:29;;;;;;;23.63;13.57;;;6.60;99.90;;;;;;5072922;28;20152;-86
2022/05/01 04:37:59;;;;;;;23.77;14.05;;;6.70;99.90;;;;;;5072755;28;20399;-86
2022/05/01 04:40:28;;;;;;;24.70;13.43;;;6.70;99.90;;;;;;5073801;28;20044;-86
2022/05/01 04:43:03;;;;;;;22.67;12.68;;;6.70;99.90;;;;;;5054764;28;20079;-87
2022/05/01 04:45:30;;;;;;;22.70;13.40;;;6.70;99.90;;;;;;5055280;28;20065;-86
2022/05/01 04:47:56;;;;;;;21.88;13.13;;;6.60;99.90;;;;;;5055855;28;20097;-86
2022/05/01 04:50:22;;;;;;;25.63;13.20;;;6.70;99.90;;;;;;5055332;28;20053;-86
2022/05/01 04:52:47;;;;;;;24.02;13.93;;;6.70;99.90;;;;;;5073495;28;20032;-87
2022/05/01 04:55:13;;;;;;;22.83;13.55;;;6.70;99.90;;;;;;5055324;28;20496;-86
2022/05/01 04:57:39;;;;;;;23.25;13.25;;;6.70;99.90;;;;;;5072676;28;20048;-86
2022/05/01 05:00:07;;;;;;;23.70;13.80;;;6.70;99.90;;;;;;5073768;28;20041;-86
2022/05/01 05:02:41;;;;;;;22.45;13.13;;;6.70;99.90;;;;;;5072577;28;20123;-86
2022/05/01 05:05:08;;;;;;;24.08;14.73;;;6.80;99.90;;;;;;5055064;28;20134;-86
2022/05/01 05:07:34;;;;;;;24.05;13.23;;;6.80;99.90;;;;;;5071957;28;20087;-86
2022/05/01 05:09:59;;;;;;;24.17;13.88;;;6.80;99.90;;;;;;5072380;28;20032;-86
2022/05/01 05:12:25;;;;;;;21.25;12.93;;;6.90;99.90;;;;;;5054908;28;20049;-86
2022/05/01 05:14:54;;;;;;;24.92;13.80;;;6.90;99.90;;;;;;5072635;28;20048;-86
2022/05/01 05:17:20;;;;;;;23.70;14.18;;;6.80;99.90;;;;;;5072118;28;20051;-87
2022/05/01 05:19:47;;;;;;;23.15;13.27;;;6.90;99.90;;;;;;5072845;28;20045;-87
2022/05/01 05:22:13;;;;;;;22.42;13.82;;;6.90;99.90;;;;;;5073220;28;20055;-86
2022/05/01 05:24:39;;;;;;;21.92;13.50;;;7.00;99.90;;;;;;5071992;28;20373;-86
2022/05/01 05:27:04;;;;;;;22.33;13.63;;;7.00;99.90;;;;;;5072819;28;20048;-87
2022/05/01 05:29:30;;;;;;;22.45;13.50;;;7.00;99.90;;;;;;5055036;28;20048;-86
2022/05/01 05:31:56;;;;;;;24.77;13.32;;;7.30;99.90;;;;;;5053748;28;20057;-86
2022/05/01 05:34:22;;;;;;;24.52;14.30;;;7.10;99.90;;;;;;5054906;28;20040;-87
2022/05/01 05:36:47;;;;;;;26.88;13.77;;;7.10;99.90;;;;;;5057604;28;20045;-87
2022/05/01 05:39:13;;;;;;;22.63;12.95;;;7.20;99.90;;;;;;5071992;28;20396;-87
2022/05/01 05:41:39;;;;;;;22.80;13.18;;;7.20;99.90;;;;;;5054092;28;20193;-86
2022/05/01 05:44:05;;;;;;;23.77;13.13;;;7.20;99.90;;;;;;5072949;28;20131;-87
2022/05/01 05:46:30;;;;;;;23.58;13.93;;;7.20;99.90;;;;;;5057233;28;20048;-87
2022/05/01 05:48:56;;;;;;;23.95;14.52;;;7.30;99.90;;;;;;5073365;28;20089;-89
2022/05/01 05:51:22;;;;;;;23.63;13.20;;;7.30;99.90;;;;;;5086283;28;20119;-92
2022/05/01 05:54:06;;;;;;;22.42;14.20;;;7.40;99.90;;;;;;5063076;28;20044;-95
2022/05/01 05:56:35;;;;;;;;;;;7.40;99.90;;;;;;5065407;28;20109;-96
2022/05/01 05:59:11;;;;;;;22.88;13.93;;;7.40;99.90;;;;;;5082874;28;19920;-96
2022/05/01 06:01:40;;;;;;;21.35;12.35;;;7.60;99.90;;;;;;5070099;28;20051;-96
2022/05/01 06:04:13;;;;;;;23.95;12.48;;;8.10;99.90;;;;;;5068707;28;20488;-96
2022/05/01 06:06:38;;;;;;;21.55;13.43;;;7.30;99.90;;;;;;5070375;28;20087;-93
2022/05/01 06:09:13;;;;;;;21.48;13.40;;;7.40;99.90;;;;;;5078622;28;20040;-94
2022/05/01 06:11:42;;;;;;;21.92;13.20;;;7.90;99.90;;;;;;5095722;28;20044;-93
2022/05/01 06:14:20;;;;;;;20.80;13.10;;;7.40;99.90;;;;;;5080122;28;20058;-92
2022/05/01 06:16:48;;;;;;;23.17;12.82;;;7.70;99.90;;;;;;5086085;28;20048;-93
2022/05/01 06:19:29;;;;;;;22.15;13.45;;;7.80;99.90;;;;;;5061713;28;20043;-94
2022/05/01 06:22:07;;;;;;;23.98;13.10;;;7.50;99.90;;;;;;5078407;28;20400;-94
2022/05/01 06:24:37;;;;;;;21.70;12.35;;;7.60;99.90;;;;;;5078970;28;20488;-94
2022/05/01 06:27:03;;;;;;;20.65;12.70;;;7.90;99.90;;;;;;5060705;28;20079;-94
2022/05/01 06:29:29;;;;;;;21.17;13.07;;;7.80;99.90;;;;;;5077631;28;20115;-88
2022/05/01 06:32:00;;;;;;;19.83;12.35;;;7.80;99.90;;;;;;5075415;28;20048;-90
2022/05/01 06:34:36;;;;;;;21.63;12.85;;;7.90;99.90;;;;;;5075673;28;20120;-89
2022/05/01 06:37:03;;;;;;;20.05;11.98;;;7.70;99.90;;;;;;5056352;28;20506;-87
2022/05/01 06:39:37;;;;;;;21.00;12.55;;;7.90;99.90;;;;;;5074589;28;20503;-91
2022/05/01 06:42:03;;;;;;;19.27;11.73;;;7.80;99.90;;;;;;5075843;28;20123;-89
2022/05/01 06:44:29;;;;;;;20.65;12.05;;;8.00;99.90;;;;;;5058656;28;20167;-89
2022/05/01 06:46:54;;;;;;;22.17;12.77;;;8.00;99.90;;;;;;5076551;28;20711;-89
2022/05/01 06:49:24;;;;;;;19.05;11.82;;;8.40;99.90;;;;;;5058226;28;20045;-90
2022/05/01 06:51:58;;;;;;;19.45;11.93;;;8.10;99.90;;;;;;5059122;28;20044;-92
2022/05/01 06:54:30;;;;;;;18.52;11.23;;;8.30;99.90;;;;;;5077879;28;20400;-91
2022/05/01 06:57:02;;;;;;;18.58;11.00;;;8.70;99.90;;;;;;5064023;28;20483;-91
2022/05/01 06:59:31;;;;;;;18.50;11.43;;;8.40;99.90;;;;;;5060854;28;20044;-89
2022/05/01 07:02:06;;;;;;;17.98;11.15;;;8.40;99.90;;;;;;5057811;28;20393;-91
2022/05/01 07:04:32;;;;;;;17.38;11.27;;;8.50;99.90;;;;;;5075122;28;20059;-90
2022/05/01 07:06:58;;;;;;;18.88;10.90;;;8.60;99.90;;;;;;5057543;28;20215;-91
2022/05/01 07:09:33;;;;;;;18.95;10.27;;;9.60;99.90;;;;;;5057842;28;20055;-91
2022/05/01 07:11:59;;;;;;;21.00;11.13;;;9.10;99.90;;;;;;5075055;28;20049;-91
2022/05/01 07:14:34;;;;;;;18.30;10.68;;;9.90;99.90;;;;;;5057463;28;20056;-90
2022/05/01 07:17:02;;;;;;;17.77;11.30;;;8.90;99.90;;;;;;5056430;28;20052;-90
2022/05/01 07:19:28;;;;;;;17.10;10.25;;;9.10;99.90;;;;;;5076111;28;20048;-90
2022/05/01 07:21:54;;;;;;;18.13;11.18;;;9.60;99.90;;;;;;5075124;28;20128;-91
2022/05/01 07:24:19;;;;;;;17.17;11.13;;;9.60;99.90;;;;;;5074694;28;20124;-90
2022/05/01 07:26:51;;;;;;;18.15;11.90;;;9.30;99.90;;;;;;5074901;28;20484;-91
2022/05/01 07:29:16;;;;;;;18.50;11.68;;;9.50;99.90;;;;;;5079863;28;20049;-91
2022/05/01 07:31:48;;;;;;;18.55;11.27;;;8.60;99.90;;;;;;5056699;28;20157;-91
2022/05/01 07:35:04;;;;;;;19.48;11.80;;;9.50;99.90;;;;;;5056851;28;20049;-92
2022/05/01 07:37:30;;;;;;;20.65;12.73;;;9.60;99.90;;;;;;5061363;28;20432;-92
2022/05/01 07:40:01;;;;;;;18.15;12.32;;;10.30;99.90;;;;;;5081615;28;20048;-91
2022/05/01 07:42:45;;;;;;;18.25;11.82;;;10.40;99.90;;;;;;5057353;28;20041;-91
2022/05/01 07:45:45;;;;;;;18.50;11.95;;;9.20;99.90;;;;;;5056658;28;20507;-92
2022/05/01 07:48:14;;;;;;;19.48;11.70;;;10.50;99.90;;;;;;5074549;28;20373;-92
2022/05/01 07:50:42;;;;;;;17.70;12.23;;;10.10;99.90;;;;;;5056394;28;20068;-92
2022/05/01 07:53:17;;;;;;;18.23;12.25;;;12.00;99.90;;;;;;5056337;28;20040;-92
2022/05/01 07:55:43;;;;;;;16.95;11.40;;;11.00;99.90;;;;;;5075656;28;20040;-92
2022/05/01 07:58:20;;;;;;;17.73;11.43;;;10.20;99.90;;;;;;5074203;28;20522;-92
2022/05/01 08:00:49;;;;;;;17.00;11.45;;;10.00;99.90;;;;;;5085912;28;20044;-91
2022/05/01 08:06:22;;;;;;;19.13;11.82;;;10.90;99.90;;;;;;5055895;28;20040;-91
2022/05/01 08:08:48;;;;;;;19.08;10.73;;;10.90;99.90;;;;;;5067289;28;20488;-90
2022/05/01 08:11:13;;;;;;;15.52;10.68;;;11.00;99.90;;;;;;5052873;28;20043;-90
2022/05/01 08:13:39;;;;;;;17.35;10.73;;;11.40;99.90;;;;;;5051744;28;20048;-88
2022/05/01 08:16:05;;;;;;;16.05;10.35;;;10.70;99.90;;;;;;5036625;28;20044;-90
2022/05/01 08:21:28;;;;;;;18.45;11.60;;;10.90;99.90;;;;;;5053084;28;20041;-91
2022/05/01 08:23:57;;;;;;;14.90;9.10;;;11.20;99.90;;;;;;5053283;28;20052;-90
2022/05/01 08:26:26;;;;;;;17.02;8.82;;;11.40;99.90;;;;;;5053008;28;20041;-90
2022/05/01 08:28:56;;;;;;;14.48;8.23;;;11.30;99.90;;;;;;5053268;28;20484;-90
2022/05/01 08:31:27;;;;;;;13.95;7.90;;;11.60;99.90;;;;;;5038158;28;20053;-88
2022/05/01 08:33:55;;;;;;;13.80;8.55;;;11.70;99.90;;;;;;5054333;28;20064;-87
2022/05/01 08:36:33;;;;;;;13.80;8.50;;;11.70;99.90;;;;;;5073586;28;20040;-89
2022/05/01 08:39:20;;;;;;;13.77;8.80;;;11.70;99.90;;;;;;5073045;28;20508;-89
2022/05/01 08:41:45;;;;;;;12.77;8.57;;;11.70;99.90;;;;;;5055098;28;20059;-88
2022/05/01 08:44:36;;;;;;;14.35;8.52;;;12.00;99.90;;;;;;5055661;28;20040;-90
2022/05/01 08:47:10;;;;;;;14.45;9.38;;;12.20;99.90;;;;;;5057490;28;20040;-89
2022/05/01 08:49:57;;;;;;;13.45;8.50;;;12.30;99.90;;;;;;5072589;28;20132;-89
2022/05/01 08:52:25;;;;;;;12.50;8.38;;;12.50;99.90;;;;;;5055602;28;20075;-94
2022/05/01 08:54:52;;;;;;;12.90;8.30;;;12.60;99.90;;;;;;5071893;28;20052;-88
2022/05/01 08:57:33;;;;;;;14.57;9.15;;;12.50;99.90;;;;;;5073154;28;20037;-89
2022/05/01 09:00:07;;;;;;;13.85;8.70;;;12.90;99.90;;;;;;5073203;28;20405;-88
2022/05/01 09:02:39;;;;;;;12.30;7.82;;;12.90;99.90;;;;;;5054922;28;20049;-89
2022/05/01 09:05:05;;;;;;;13.13;7.85;;;13.00;99.90;;;;;;5057788;28;20098;-88
2022/05/01 09:07:30;;;;;;;13.38;7.97;;;12.90;99.90;;;;;;5072954;28;20051;-87
2022/05/01 09:09:58;;;;;;;13.05;7.50;;;13.00;99.90;;;;;;5019418;28;20040;-88
2022/05/01 09:15:11;;;;;;;16.02;7.90;;;13.00;99.90;;;;;;5072995;28;20044;-89
2022/05/01 09:17:37;;;;;;;14.50;7.70;;;13.40;99.90;;;;;;5077595;28;20025;-88
2022/05/01 09:20:09;;;;;;;13.57;7.38;;;13.20;99.90;;;;;;5072357;28;20182;-88
2022/05/01 09:22:50;;;;;;;14.48;7.35;;;13.10;99.90;;;;;;5075307;28;20059;-88
2022/05/01 09:25:17;;;;;;;13.20;7.85;;;13.20;99.90;;;;;;5086163;28;20048;-88
2022/05/01 09:27:42;;;;;;;12.68;8.02;;;13.30;99.90;;;;;;5075231;28;20056;-89
2022/05/01 09:30:09;;;;;;;15.32;7.70;;;13.40;99.90;;;;;;5075863;28;20039;-88
2022/05/01 09:32:39;;;;;;;13.57;7.93;;;13.50;99.90;;;;;;5073003;28;20500;-88
2022/05/01 09:35:31;;;;;;;12.55;7.70;;;13.80;99.90;;;;;;5054417;28;20477;-88
2022/05/01 09:38:22;;;;;;;12.32;7.50;;;14.00;99.90;;;;;;5071857;28;20190;-88
2022/05/01 09:40:50;;;;;;;12.70;7.53;;;14.10;99.90;;;;;;5072449;28;20040;-88
2022/05/01 09:43:34;;;;;;;13.45;7.95;;;14.20;99.90;;;;;;5072605;28;20048;-88
2022/05/01 09:46:22;;;;;;;12.77;7.70;;;14.20;99.90;;;;;;5070874;28;20044;-87
2022/05/01 09:49:10;;;;;;;13.43;7.45;;;14.30;99.90;;;;;;5069818;28;20051;-87
2022/05/01 09:51:50;;;;;;;12.38;6.97;;;14.30;99.90;;;;;;5053963;28;20047;-89
2022/05/01 09:54:24;;;;;;;14.02;7.55;;;14.30;99.90;;;;;;5054518;28;20046;-88
2022/05/01 09:56:59;;;;;;;;;;;14.40;99.90;;;;;;5054478;28;20051;-88
2022/05/01 09:59:27;;;;;;;13.43;7.32;;;14.30;99.90;;;;;;5052804;28;19920;-89
2022/05/01 10:02:03;;;;;;;11.63;7.03;;;14.10;99.90;;;;;;5072451;28;20561;-89
2022/05/01 10:04:33;;;;;;;13.23;7.70;;;14.00;99.90;;;;;;5072211;28;20484;-88
2022/05/01 10:07:00;;;;;;;15.25;7.47;;;14.00;99.90;;;;;;5071200;28;20087;-87
2022/05/01 10:09:31;;;;;;;12.80;7.32;;;14.10;99.90;;;;;;5056065;28;20044;-89
2022/05/01 10:11:58;;;;;;;12.70;6.95;;;14.20;99.90;;;;;;5070300;28;20500;-89
2022/05/01 10:14:26;;;;;;;12.07;7.50;;;14.30;99.90;;;;;;5071685;28;20094;-89
2022/05/01 10:16:54;;;;;;;12.02;7.03;;;14.30;99.90;;;;;;5071558;28;20392;-89
2022/05/01 10:19:23;;;;;;;12.23;7.32;;;14.50;99.90;;;;;;5053500;28;20044;-88
2022/05/01 10:21:52;;;;;;;14.18;6.95;;;14.60;99.90;;;;;;5054200;28;20106;-88
2022/05/01 10:24:19;;;;;;;11.38;6.90;;;14.70;99.90;;;;;;5054087;28;20036;-88
2022/05/01 10:27:14;;;;;;;11.95;6.90;;;14.90;99.90;;;;;;5052764;28;20033;-88
2022/05/01 10:33:00;;;;;;;13.68;7.20;;;15.00;99.90;;;;;;5071140;28;20048;-88
2022/05/01 10:35:46;;;;;;;12.40;6.55;;;15.20;99.90;;;;;;5053957;28;20403;-88
2022/05/01 10:38:16;;;;;;;10.90;6.57;;;15.30;99.90;;;;;;5056831;28;20412;-88
2022/05/01 10:40:58;;;;;;;11.13;6.22;;;15.30;99.90;;;;;;5056558;28;20051;-89
2022/05/01 10:43:38;;;;;;;13.63;6.47;;;15.30;99.90;;;;;;5075012;28;20036;-89
2022/05/01 10:46:31;;;;;;;10.73;6.20;;;15.30;99.90;;;;;;5057278;28;20078;-87
2022/05/01 10:49:00;;;;;;;11.77;6.97;;;15.00;99.90;;;;;;5055979;28;20044;-86
2022/05/01 10:51:36;;;;;;;11.23;6.43;;;15.00;99.90;;;;;;5057605;28;20063;-87
2022/05/01 10:54:13;;;;;;;13.30;7.40;;;15.00;99.90;;;;;;5056575;28;20048;-86
2022/05/01 10:56:40;;;;;;;13.30;6.70;;;14.90;99.90;;;;;;5074102;28;20434;-86
2022/05/01 10:59:31;;;;;;;14.23;6.95;;;14.80;99.90;;;;;;5074696;28;20135;-87
2022/05/01 11:01:59;;;;;;;12.50;6.55;;;14.80;99.90;;;;;;5056073;28;20381;-87
2022/05/01 11:04:28;;;;;;;12.23;6.90;;;14.80;99.90;;;;;;5074867;28;20075;-87
2022/05/01 11:06:56;;;;;;;11.02;6.00;;;14.90;99.90;;;;;;5056400;28;20044;-86
2022/05/01 11:09:23;;;;;;;12.00;7.07;;;15.20;99.90;;;;;;5074568;28;20504;-87
2022/05/01 11:12:02;;;;;;;12.15;6.53;;;15.40;99.90;;;;;;5079694;28;20082;-88
2022/05/01 11:14:57;;;;;;;11.43;6.50;;;15.70;99.90;;;;;;5058317;28;20067;-89
2022/05/01 11:17:44;;;;;;;11.57;6.53;;;15.70;99.90;;;;;;5061650;22;20052;-88
2022/05/01 11:20:19;;;;;;;10.98;5.80;;;15.90;99.90;;;;;;5055650;28;20059;-90
2022/05/01 11:22:51;;;;;;;9.90;5.47;;;15.90;99.90;;;;;;5059256;28;20041;-90
2022/05/01 11:25:40;;;;;;;11.38;5.55;;;15.90;99.90;;;;;;5055823;28;20044;-90
2022/05/01 11:28:43;;;;;;;9.77;4.70;;;15.80;98.80;;;;;;5057282;28;20382;-89
2022/05/01 11:31:35;;;;;;;10.32;4.80;;;15.80;97.80;;;;;;4977144;28;20051;-86
2022/05/01 11:34:32;;;;;;;9.63;4.97;;;15.80;97.60;;;;;;5082282;22;20044;-92
2022/05/01 11:37:11;;;;;;;11.05;5.00;;;16.10;98.50;;;;;;5076966;28;20079;-93
2022/05/01 11:39:46;;;;;;;9.25;4.50;;;16.20;97.40;;;;;;5076582;28;20083;-92
2022/05/01 11:42:24;;;;;;;10.55;4.43;;;16.10;96.80;;;;;;5077824;28;20040;-92
2022/05/01 11:44:58;;;;;;;9.38;4.60;;;16.20;96.00;;;;;;5074274;28;20131;-88
2022/05/01 11:47:27;;;;;;;10.35;4.50;;;16.20;96.50;;;;;;5091502;28;20075;-89
2022/05/01 11:49:56;;;;;;;10.75;4.93;;;16.70;96.60;;;;;;5075382;28;20083;-88
2022/05/01 11:52:24;;;;;;;9.65;5.00;;;15.70;96.40;;;;;;5093371;28;20517;-88
2022/05/01 11:54:59;;;;;;;9.75;4.70;;;14.90;95.80;;;;;;5074860;28;20040;-88
2022/05/01 12:04:01;;;;;;;9.63;4.38;;;16.20;95.50;;;;;;5094324;28;20044;-88
2022/05/01 12:06:42;;;;;;;9.50;4.57;;;14.70;94.20;;;;;;5075573;28;20123;-88
2022/05/01 12:09:18;;;;;;;9.02;4.43;;;15.60;94.40;;;;;;5075796;28;20491;-88
2022/05/01 12:12:02;;;;;;;10.30;4.68;;;15.60;95.00;;;;;;5074891;28;20039;-88
2022/05/01 12:14:43;;;;;;;;;;;15.20;94.70;;;;;;5094953;28;20036;-88
2022/05/01 12:17:14;;;;;;;9.77;4.53;;;15.10;94.80;;;;;;5097568;28;20448;-89
2022/05/01 12:19:54;;;;;;;9.50;4.00;;;15.20;95.80;;;;;;5093291;28;20046;-88
2022/05/01 12:22:23;;;;;;;8.52;3.78;;;15.60;96.30;;;;;;5094325;28;20048;-87
2022/05/01 12:24:49;;;;;;;10.07;5.78;;;15.50;96.00;;;;;;5093715;28;20047;-88
2022/05/01 12:27:18;;;;;;;10.18;4.50;;;15.20;95.40;;;;;;5093288;28;20036;-88
2022/05/01 12:29:53;;;;;;;9.18;4.25;;;16.00;95.10;;;;;;5093908;28;20043;-88
2022/05/01 12:32:26;;;;;;;9.43;4.00;;;15.90;93.90;;;;;;5096843;28;20063;-87
2022/05/01 12:34:57;;;;;;;9.00;4.13;;;15.30;94.20;;;;;;5107829;28;20204;-88
2022/05/01 12:37:44;;;;;;;9.65;4.32;;;15.40;94.50;;;;;;5084712;28;20052;-88
2022/05/01 12:46:29;;;;;;;10.23;4.10;;;16.00;93.90;;;;;;5093484;28;20046;-88
2022/05/01 12:48:56;;;;;;;10.57;4.03;;;16.10;95.00;;;;;;5093194;28;20135;-88
2022/05/01 12:51:24;;;;;;;8.38;3.50;;;16.10;95.20;;;;;;5075158;28;20067;-88
2022/05/01 12:54:08;;;;;;;9.48;3.88;;;16.30;94.90;;;;;;5097506;22;20883;-88
2022/05/01 12:56:34;;;;;;;9.20;3.78;;;16.30;94.20;;;;;;5113407;28;20052;-88
2022/05/01 12:59:20;;;;;;;8.77;3.97;;;16.40;94.30;;;;;;5094160;28;20449;-88
2022/05/01 13:01:52;;;;;;;9.27;3.60;;;16.50;94.10;;;;;;5094745;28;20047;-89
2022/05/01 13:04:26;;;;;;;8.13;3.65;;;16.00;93.70;;;;;;5096012;28;20488;-88
2022/05/01 13:06:53;;;;;;;8.52;3.83;;;15.80;93.60;;;;;;5099500;28;20032;-88
2022/05/01 13:09:21;;;;;;;8.25;3.53;;;15.70;93.90;;;;;;5113884;28;20043;-89
2022/05/01 13:12:04;;;;;;;9.50;3.85;;;15.50;94.00;;;;;;5113744;28;20097;-91
2022/05/01 13:14:32;;;;;;;9.27;3.60;;;15.50;93.00;;;;;;5118916;28;20108;-90
2022/05/01 13:17:12;;;;;;;9.57;3.60;;;15.50;94.20;;;;;;5089862;28;20562;-91
2022/05/01 13:19:41;;;;;;;8.20;3.80;;;15.40;93.80;;;;;;5108848;28;20126;-89
2022/05/01 13:22:08;;;;;;;10.93;3.90;;;15.40;94.10;;;;;;5082842;28;20044;-90
2022/05/01 13:24:36;;;;;;;9.20;3.58;;;15.40;93.60;;;;;;5077350;28;20082;-89
2022/05/01 13:27:05;;;;;;;8.50;3.70;;;15.40;93.70;;;;;;5073532;28;20135;-90
2022/05/01 13:29:32;;;;;;;8.55;3.65;;;15.40;93.70;;;;;;5092381;28;20044;-89